Time;durP1;ratioP1;P1;durP2;ratioP2;P2;SDS_P1;SDS_P2;PMS_P1;PMS_P2;Temp;Humidity;BMP_temperature;BMP_pressure;BME280_temperature;BME280_humidity;BME280_pressure;Samples;Min_cycle;Max_cycle;Signal;HPM_P1;HPM_P2
2021/12/23 00:01:54;;;;;;;13.48;5.70;;;23.80;99.90;;;;;;4972075;28;20470;-70
2021/12/23 00:04:22;;;;;;;13.55;6.18;;;23.80;99.90;;;;;;4959758;28;20031;-70
2021/12/23 00:06:49;;;;;;;13.73;6.10;;;23.80;99.90;;;;;;4954380;28;20023;-69
2021/12/23 00:09:16;;;;;;;19.00;6.38;;;23.80;99.90;;;;;;4953671;28;20037;-68
2021/12/23 00:11:44;;;;;;;15.70;8.15;;;23.80;99.90;;;;;;4953830;28;20046;-69
2021/12/23 00:14:11;;;;;;;18.20;9.70;;;23.70;99.90;;;;;;4955708;28;20117;-69
2021/12/23 00:16:54;;;;;;;17.55;7.60;;;23.80;99.90;;;;;;4962982;28;20023;-68
2021/12/23 00:24:40;;;;;;;23.85;6.25;;;23.80;99.90;;;;;;4962939;28;20058;-69
2021/12/23 00:27:09;;;;;;;18.10;7.80;;;23.80;99.90;;;;;;4961940;28;20400;-69
2021/12/23 00:29:37;;;;;;;28.40;20.30;;;23.80;99.90;;;;;;4964503;28;20027;-67
2021/12/23 00:32:07;;;;;;;26.70;16.02;;;23.90;99.90;;;;;;4973110;28;20031;-69
2021/12/23 00:34:35;;;;;;;15.35;8.02;;;23.90;99.90;;;;;;4973171;28;20558;-69
2021/12/23 00:37:05;;;;;;;14.05;6.18;;;23.90;99.90;;;;;;4972735;28;20031;-69
2021/12/23 00:39:33;;;;;;;13.73;6.13;;;23.90;99.90;;;;;;4973090;28;20027;-69
2021/12/23 00:42:06;;;;;;;14.40;5.90;;;23.80;99.90;;;;;;4973216;28;20050;-70
2021/12/23 00:44:39;;;;;;;8.88;4.30;;;23.70;99.90;;;;;;4973094;28;20031;-69
2021/12/23 00:47:07;;;;;;;10.93;3.75;;;23.60;99.90;;;;;;4972754;28;20481;-69
2021/12/23 00:49:34;;;;;;;7.78;4.05;;;23.50;99.90;;;;;;4972133;28;20031;-70
2021/12/23 00:52:03;;;;;;;10.85;4.43;;;23.50;99.90;;;;;;4972032;28;20038;-70
2021/12/23 00:54:31;;;;;;;10.60;4.15;;;23.40;99.90;;;;;;4972867;28;20483;-69
2021/12/23 00:56:58;;;;;;;10.80;3.75;;;23.40;99.90;;;;;;4972750;28;20038;-71
2021/12/23 00:59:25;;;;;;;9.95;4.57;;;23.40;99.90;;;;;;4972681;28;20023;-70
2021/12/23 01:01:53;;;;;;;8.70;3.15;;;23.40;99.90;;;;;;4972985;28;20054;-69
2021/12/23 01:04:20;;;;;;;6.95;3.00;;;23.30;99.90;;;;;;4973205;28;20026;-69
2021/12/23 01:06:48;;;;;;;6.45;3.45;;;23.30;99.90;;;;;;4973218;28;20031;-70
2021/12/23 01:09:15;;;;;;;10.48;3.65;;;23.40;99.90;;;;;;4972982;28;20025;-69
2021/12/23 01:11:43;;;;;;;6.25;3.20;;;23.60;99.90;;;;;;4972860;28;20467;-69
2021/12/23 01:19:28;;;;;;;9.88;4.28;;;24.20;99.90;;;;;;4972390;28;20050;-69
2021/12/23 01:21:55;;;;;;;9.30;4.70;;;24.50;99.90;;;;;;4972731;28;20038;-70
2021/12/23 01:24:27;;;;;;;12.90;4.55;;;24.60;99.90;;;;;;4972744;28;20043;-69
2021/12/23 01:26:54;;;;;;;9.35;4.22;;;24.70;99.90;;;;;;4971458;28;20054;-69
2021/12/23 01:29:21;;;;;;;10.45;4.30;;;24.80;99.90;;;;;;4972478;28;20538;-70
2021/12/23 01:31:48;;;;;;;12.15;5.05;;;25.00;99.90;;;;;;4972351;28;20057;-70
2021/12/23 01:34:16;;;;;;;13.73;4.93;;;25.20;99.90;;;;;;4972354;28;20031;-70
2021/12/23 01:36:43;;;;;;;12.77;5.40;;;25.40;99.90;;;;;;4972479;28;20023;-70
2021/12/23 01:39:13;;;;;;;18.70;6.82;;;25.60;99.90;;;;;;4971001;28;20050;-70
2021/12/23 01:41:41;;;;;;;16.10;7.03;;;25.80;99.90;;;;;;4972374;28;20023;-70
2021/12/23 01:44:08;;;;;;;16.70;6.38;;;25.80;99.90;;;;;;4972503;28;20019;-70
2021/12/23 01:46:36;;;;;;;15.95;7.43;;;25.80;99.90;;;;;;4972714;28;20456;-70
2021/12/23 01:49:04;;;;;;;19.35;7.10;;;25.80;99.90;;;;;;4972472;28;20037;-68
2021/12/23 01:51:31;;;;;;;17.15;7.20;;;25.90;99.90;;;;;;4972448;28;20087;-69
2021/12/23 01:53:58;;;;;;;16.40;7.63;;;26.00;99.90;;;;;;4972505;28;20467;-69
2021/12/23 01:56:26;;;;;;;16.80;6.55;;;26.20;99.90;;;;;;4972249;28;20093;-69
2021/12/23 01:58:54;;;;;;;24.65;7.38;;;26.60;99.90;;;;;;4972088;28;20022;-68
2021/12/23 02:01:22;;;;;;;16.45;6.75;;;26.80;99.90;;;;;;4975786;28;20023;-68
2021/12/23 02:03:49;;;;;;;19.95;6.32;;;27.20;99.90;;;;;;4975781;28;20050;-67
2021/12/23 02:06:16;;;;;;;20.75;7.07;;;27.10;99.90;;;;;;4976280;28;20019;-69
2021/12/23 02:08:44;;;;;;;15.20;6.57;;;26.90;99.90;;;;;;4976012;28;20033;-67
2021/12/23 02:11:12;;;;;;;19.25;7.88;;;26.80;99.90;;;;;;4975860;28;20047;-68
2021/12/23 02:13:40;;;;;;;23.10;6.57;;;26.80;99.90;;;;;;4975897;28;20027;-69
2021/12/23 02:16:07;;;;;;;18.95;6.90;;;26.90;99.90;;;;;;4975883;28;20332;-68
2021/12/23 02:18:36;;;;;;;20.83;6.63;;;27.10;99.90;;;;;;4975677;28;20027;-67
2021/12/23 02:21:05;;;;;;;18.75;5.93;;;27.00;99.90;;;;;;4975081;28;20107;-68
2021/12/23 02:23:33;;;;;;;19.13;6.07;;;26.80;99.90;;;;;;4975085;28;20058;-70
2021/12/23 02:26:01;;;;;;;19.27;6.75;;;26.70;99.90;;;;;;4974541;28;20054;-68
2021/12/23 02:28:28;;;;;;;20.52;7.80;;;26.60;99.90;;;;;;4973628;28;20102;-70
2021/12/23 02:30:56;;;;;;;18.05;6.93;;;26.70;99.90;;;;;;4973581;28;20511;-68
2021/12/23 02:33:27;;;;;;;25.33;9.13;;;26.70;99.90;;;;;;4965389;28;20074;-68
2021/12/23 02:35:56;;;;;;;19.83;8.52;;;26.80;99.90;;;;;;4965933;28;20050;-67
2021/12/23 02:38:24;;;;;;;22.52;8.90;;;26.80;99.90;;;;;;4967598;28;20039;-69
2021/12/23 02:40:53;;;;;;;27.00;9.55;;;27.00;99.90;;;;;;4971836;28;20033;-70
2021/12/23 02:43:22;;;;;;;20.25;8.65;;;27.20;99.90;;;;;;4970268;28;20027;-69
2021/12/23 02:45:53;;;;;;;18.67;7.88;;;27.30;99.90;;;;;;4970038;28;20043;-69
2021/12/23 02:48:25;;;;;;;17.60;8.90;;;27.20;99.90;;;;;;4968283;28;20404;-69
2021/12/23 02:50:56;;;;;;;12.82;8.95;;;27.10;99.90;;;;;;4970476;28;20396;-68
2021/12/23 02:53:36;;;;;;;16.73;8.52;;;27.10;99.90;;;;;;4970140;28;20070;-70
2021/12/23 02:56:07;;;;;;;16.92;8.70;;;27.10;99.90;;;;;;4968942;28;20575;-70
2021/12/23 02:58:51;;;;;;;16.45;8.40;;;27.00;99.90;;;;;;4969949;28;20049;-69
2021/12/23 03:01:20;;;;;;;14.75;8.30;;;26.90;99.90;;;;;;4969683;28;20027;-68
2021/12/23 03:03:49;;;;;;;17.92;8.77;;;26.80;99.90;;;;;;4970156;28;20031;-68
2021/12/23 03:06:19;;;;;;;13.35;8.35;;;26.80;99.90;;;;;;4970205;28;20026;-68
2021/12/23 03:09:02;;;;;;;12.82;8.70;;;26.90;99.90;;;;;;4966789;28;20027;-68
2021/12/23 03:11:31;;;;;;;16.13;9.15;;;27.10;99.90;;;;;;4968125;28;20038;-68
2021/12/23 03:14:01;;;;;;;22.52;10.07;;;27.30;99.90;;;;;;4968345;28;20057;-69
2021/12/23 03:16:34;;;;;;;18.85;7.78;;;27.60;99.90;;;;;;4969807;28;20074;-69
2021/12/23 03:19:01;;;;;;;15.30;7.28;;;28.00;99.90;;;;;;4969319;28;20034;-68
2021/12/23 03:21:29;;;;;;;17.65;6.45;;;28.50;99.90;;;;;;4969383;28;20057;-68
2021/12/23 03:24:12;;;;;;;19.55;6.70;;;29.10;99.90;;;;;;4968673;28;20471;-69
2021/12/23 03:26:39;;;;;;;16.33;6.30;;;29.50;99.90;;;;;;4967682;28;20402;-68
2021/12/23 03:29:08;;;;;;;20.90;6.60;;;29.60;99.90;;;;;;4968457;28;20018;-69
2021/12/23 03:31:36;;;;;;;17.25;5.13;;;29.70;99.90;;;;;;4968805;28;20042;-68
2021/12/23 03:34:03;;;;;;;15.52;5.72;;;29.70;99.90;;;;;;4968795;28;20026;-68
2021/12/23 03:36:31;;;;;;;17.42;6.38;;;29.70;99.90;;;;;;4968822;28;20022;-71
2021/12/23 03:38:58;;;;;;;16.90;5.25;;;29.50;99.90;;;;;;4967899;28;20041;-71
2021/12/23 03:41:26;;;;;;;17.20;5.30;;;29.40;99.90;;;;;;4967496;28;20047;-69
2021/12/23 03:43:53;;;;;;;13.23;4.82;;;29.30;99.90;;;;;;4968254;28;20035;-67
2021/12/23 03:46:20;;;;;;;15.43;4.47;;;29.50;99.90;;;;;;4968855;28;20246;-68
2021/12/23 03:48:48;;;;;;;17.67;5.20;;;30.00;99.90;;;;;;4968206;28;20037;-67
2021/12/23 03:51:16;;;;;;;14.52;4.00;;;30.60;99.90;;;;;;4967814;28;20027;-67
2021/12/23 03:53:43;;;;;;;20.38;4.45;;;30.60;99.90;;;;;;4967421;28;20089;-67
2021/12/23 03:56:11;;;;;;;16.73;4.90;;;30.40;99.90;;;;;;4968248;28;20035;-67
2021/12/23 03:58:38;;;;;;;16.38;3.83;;;30.40;99.90;;;;;;4966844;28;20383;-67
2021/12/23 04:01:06;;;;;;;14.35;3.95;;;30.60;99.90;;;;;;4968241;28;20542;-68
2021/12/23 04:03:33;;;;;;;13.52;3.75;;;30.50;99.90;;;;;;4968050;28;20582;-68
2021/12/23 04:06:01;;;;;;;19.48;4.80;;;30.50;99.90;;;;;;4967559;28;20054;-68
2021/12/23 04:08:28;;;;;;;18.23;4.90;;;30.20;99.90;;;;;;4967384;28;20022;-67
2021/12/23 04:10:59;;;;;;;20.08;5.57;;;30.00;99.90;;;;;;4961680;28;20376;-68
2021/12/23 04:13:28;;;;;;;20.30;5.22;;;29.90;99.90;;;;;;4967365;28;20031;-68
2021/12/23 04:15:55;;;;;;;16.30;4.70;;;30.30;99.90;;;;;;4967655;28;20074;-67
2021/12/23 04:18:22;;;;;;;22.83;5.47;;;30.90;99.90;;;;;;4968187;28;20065;-67
2021/12/23 04:20:55;;;;;;;20.67;5.32;;;31.10;98.80;;;;;;4966320;28;20639;-67
2021/12/23 04:23:28;;;;;;;16.05;4.95;;;31.20;99.10;;;;;;4967634;28;20034;-68
2021/12/23 04:25:56;;;;;;;15.48;4.97;;;31.30;99.30;;;;;;4968862;28;20043;-68
2021/12/23 04:28:25;;;;;;;17.65;4.05;;;31.40;98.90;;;;;;4967221;28;20026;-68
2021/12/23 04:31:08;;;;;;;20.02;7.15;;;31.00;98.80;;;;;;4967310;28;20033;-67
2021/12/23 04:33:35;;;;;;;20.20;4.63;;;30.40;99.90;;;;;;4968102;28;20034;-70
2021/12/23 04:36:03;;;;;;;17.23;4.85;;;30.60;99.90;;;;;;4970808;28;20045;-68
2021/12/23 04:38:30;;;;;;;20.33;5.03;;;30.40;99.70;;;;;;4971292;28;20384;-68
2021/12/23 04:40:57;;;;;;;17.80;5.07;;;30.50;99.90;;;;;;4972009;28;20442;-67
2021/12/23 04:43:24;;;;;;;16.67;4.28;;;30.50;99.80;;;;;;4971801;28;20484;-67
2021/12/23 04:45:52;;;;;;;19.63;5.53;;;30.70;99.40;;;;;;4972433;28;20030;-67
2021/12/23 04:48:19;;;;;;;18.55;4.82;;;30.70;99.30;;;;;;4972028;28;20046;-66
2021/12/23 04:50:47;;;;;;;15.15;4.45;;;30.80;98.80;;;;;;4972525;28;20023;-67
2021/12/23 04:53:14;;;;;;;16.13;4.80;;;30.80;98.70;;;;;;4971323;28;20043;-68
2021/12/23 04:55:42;;;;;;;20.45;5.93;;;30.60;98.60;;;;;;4972172;28;20025;-67
2021/12/23 04:58:09;;;;;;;15.13;4.68;;;29.90;99.90;;;;;;4972341;28;20077;-67
2021/12/23 05:00:37;;;;;;;17.67;5.88;;;29.30;99.90;;;;;;4972252;28;20019;-68
2021/12/23 05:03:05;;;;;;;17.70;4.95;;;29.00;99.90;;;;;;4971264;28;20033;-67
2021/12/23 05:05:32;;;;;;;16.80;4.72;;;28.60;99.90;;;;;;4970202;28;20035;-68
2021/12/23 05:07:59;;;;;;;18.73;5.15;;;28.50;99.90;;;;;;4971771;28;20023;-68
2021/12/23 05:10:27;;;;;;;15.38;5.00;;;28.20;99.90;;;;;;4971219;28;20031;-67
2021/12/23 05:12:54;;;;;;;18.20;5.35;;;27.90;99.90;;;;;;4971421;28;20550;-67
2021/12/23 05:15:21;;;;;;;16.60;5.55;;;27.70;99.90;;;;;;4970695;28;20483;-67
2021/12/23 05:17:49;;;;;;;17.77;4.93;;;27.50;99.90;;;;;;4972976;28;20030;-67
2021/12/23 05:20:19;;;;;;;21.38;4.68;;;27.50;99.90;;;;;;4973020;28;20027;-67
2021/12/23 05:22:47;;;;;;;18.42;5.57;;;27.40;99.90;;;;;;4972805;28;20019;-67
2021/12/23 05:25:15;;;;;;;18.75;5.30;;;27.30;99.90;;;;;;4972700;28;20019;-68
2021/12/23 05:27:43;;;;;;;17.80;5.05;;;27.10;99.90;;;;;;4971377;28;20464;-67
2021/12/23 05:30:14;;;;;;;15.98;5.22;;;27.10;99.90;;;;;;4973003;28;20475;-67
2021/12/23 05:32:43;;;;;;;20.87;4.93;;;26.90;99.90;;;;;;4973256;28;20043;-67
2021/12/23 05:35:12;;;;;;;21.90;4.75;;;26.90;99.90;;;;;;4974721;28;20677;-68
2021/12/23 05:37:39;;;;;;;14.80;5.10;;;26.90;99.90;;;;;;4976335;28;20050;-67
2021/12/23 05:40:09;;;;;;;17.73;4.82;;;26.80;99.90;;;;;;4976248;28;20050;-67
2021/12/23 05:42:36;;;;;;;20.25;4.88;;;26.70;99.90;;;;;;4976233;28;20027;-67
2021/12/23 05:45:04;;;;;;;15.98;4.78;;;26.70;99.90;;;;;;4976554;28;20019;-68
2021/12/23 05:47:31;;;;;;;21.83;5.35;;;26.70;99.90;;;;;;4976446;28;20030;-68
2021/12/23 05:49:59;;;;;;;20.83;5.93;;;26.60;99.90;;;;;;4976138;28;20015;-68
2021/12/23 05:52:26;;;;;;;16.77;4.32;;;26.50;99.90;;;;;;4976015;28;20096;-68
2021/12/23 05:54:53;;;;;;;19.35;4.35;;;26.50;99.90;;;;;;4976446;28;20495;-68
2021/12/23 05:57:21;;;;;;;20.25;5.65;;;26.40;99.90;;;;;;4976036;28;20037;-68
2021/12/23 05:59:48;;;;;;;15.38;3.63;;;26.30;99.90;;;;;;4975983;28;20082;-68
2021/12/23 06:02:15;;;;;;;19.48;5.95;;;26.10;99.90;;;;;;4976315;28;20030;-68
2021/12/23 06:04:42;;;;;;;17.10;4.43;;;26.00;99.90;;;;;;4976177;28;20022;-69
2021/12/23 06:07:10;;;;;;;17.38;4.93;;;26.00;99.90;;;;;;4975883;28;20054;-68
2021/12/23 06:09:37;;;;;;;14.27;4.55;;;26.00;99.90;;;;;;4976011;28;20117;-68
2021/12/23 06:12:05;;;;;;;11.85;3.25;;;25.90;99.90;;;;;;4976194;28;20078;-68
2021/12/23 06:14:32;;;;;;;10.70;4.43;;;25.80;99.90;;;;;;4976454;28;20392;-69
2021/12/23 06:17:01;;;;;;;14.63;3.63;;;25.80;99.90;;;;;;4976438;28;20019;-68
2021/12/23 06:19:28;;;;;;;14.38;3.90;;;25.70;99.90;;;;;;4976138;28;20015;-69
2021/12/23 06:21:55;;;;;;;11.95;3.28;;;25.60;99.90;;;;;;4976239;28;20411;-68
2021/12/23 06:24:23;;;;;;;16.60;4.32;;;25.60;99.90;;;;;;4975369;28;20407;-69
2021/12/23 06:26:50;;;;;;;12.77;3.30;;;25.50;99.90;;;;;;4975484;28;20069;-69
2021/12/23 06:29:17;;;;;;;11.38;3.45;;;25.40;99.90;;;;;;4975601;28;20032;-70
2021/12/23 06:31:45;;;;;;;12.73;4.55;;;25.40;99.90;;;;;;4975610;28;20045;-69
2021/12/23 06:34:12;;;;;;;13.45;3.47;;;25.40;99.90;;;;;;4975529;28;20041;-68
2021/12/23 06:36:42;;;;;;;13.20;3.67;;;25.30;99.90;;;;;;4975429;28;20019;-69
2021/12/23 06:39:09;;;;;;;28.73;20.70;;;25.40;99.90;;;;;;4975763;28;20050;-69
2021/12/23 06:41:36;;;;;;;114.75;102.82;;;25.30;99.90;;;;;;4975556;28;20021;-69
2021/12/23 06:44:04;;;;;;;20.38;8.27;;;25.40;99.90;;;;;;4975489;28;20143;-69
2021/12/23 06:46:31;;;;;;;19.02;5.60;;;25.40;99.90;;;;;;4973992;28;20160;-68
2021/12/23 06:48:58;;;;;;;18.20;7.15;;;25.40;99.90;;;;;;4975168;28;20030;-69
2021/12/23 06:51:28;;;;;;;24.95;7.78;;;25.50;99.90;;;;;;4975042;28;20031;-69
2021/12/23 06:53:57;;;;;;;21.55;6.97;;;25.60;99.90;;;;;;4975049;28;20375;-68
2021/12/23 06:56:26;;;;;;;18.80;4.80;;;25.50;99.90;;;;;;4975288;28;20019;-68
2021/12/23 06:58:53;;;;;;;18.85;5.95;;;25.50;99.90;;;;;;4975290;28;20057;-68
2021/12/23 07:01:21;;;;;;;11.18;4.78;;;25.40;99.90;;;;;;4975281;28;20030;-68
2021/12/23 07:04:14;;;;;;;17.08;4.20;;;25.40;99.90;;;;;;4973492;28;20019;-70
2021/12/23 07:06:59;;;;;;;18.02;5.30;;;25.30;99.90;;;;;;4975283;28;20110;-69
2021/12/23 07:09:26;;;;;;;15.38;4.57;;;25.40;99.90;;;;;;4974857;28;20034;-69
2021/12/23 07:11:53;;;;;;;17.20;4.38;;;25.40;99.90;;;;;;4974861;28;20038;-68
2021/12/23 07:14:21;;;;;;;13.77;3.83;;;25.40;99.90;;;;;;4974871;28;20031;-68
2021/12/23 07:16:48;;;;;;;16.08;5.13;;;25.50;99.90;;;;;;4975131;28;20058;-69
2021/12/23 07:19:15;;;;;;;21.05;6.20;;;25.50;99.90;;;;;;4974971;28;20031;-68
2021/12/23 07:21:42;;;;;;;18.08;4.35;;;25.50;99.90;;;;;;4974853;28;20063;-68
2021/12/23 07:24:10;;;;;;;28.92;7.90;;;25.50;99.90;;;;;;4974345;28;20050;-68
2021/12/23 07:26:37;;;;;;;19.92;5.43;;;25.50;99.90;;;;;;4973102;28;20037;-68
2021/12/23 07:29:05;;;;;;;13.68;3.40;;;25.50;99.90;;;;;;4974444;28;20034;-68
2021/12/23 07:31:32;;;;;;;20.48;4.50;;;25.50;99.90;;;;;;4974283;28;20022;-68
2021/12/23 07:33:59;;;;;;;16.83;5.03;;;25.50;99.90;;;;;;4974084;28;20038;-66
2021/12/23 07:36:27;;;;;;;15.68;3.85;;;25.60;99.90;;;;;;4974304;28;20027;-66
2021/12/23 07:38:57;;;;;;;15.40;4.68;;;25.60;99.90;;;;;;4974490;28;20027;-65
2021/12/23 07:41:29;;;;;;;17.90;4.53;;;25.60;99.90;;;;;;4974478;28;20482;-67
2021/12/23 07:44:03;;;;;;;20.45;4.90;;;25.60;99.90;;;;;;4974425;28;20077;-66
2021/12/23 07:46:34;;;;;;;12.70;4.38;;;25.50;99.90;;;;;;4974319;28;20364;-66
2021/12/23 07:49:03;;;;;;;12.45;3.90;;;25.50;99.90;;;;;;4972746;28;20034;-66
2021/12/23 07:51:30;;;;;;;13.93;3.90;;;25.40;99.90;;;;;;4973798;28;20097;-67
2021/12/23 07:53:57;;;;;;;14.05;4.57;;;25.40;99.90;;;;;;4973703;28;20045;-66
2021/12/23 07:56:25;;;;;;;12.50;4.78;;;25.30;99.90;;;;;;4973907;28;20102;-67
2021/12/23 07:58:53;;;;;;;11.52;4.20;;;25.30;99.90;;;;;;4973533;28;20436;-66
2021/12/23 08:01:21;;;;;;;11.77;4.15;;;25.30;99.90;;;;;;4974188;28;20054;-67
2021/12/23 08:03:48;;;;;;;16.83;5.70;;;25.30;99.90;;;;;;4974267;28;20498;-67
2021/12/23 08:06:16;;;;;;;13.90;5.05;;;25.30;99.90;;;;;;4973981;28;20126;-68
2021/12/23 08:08:44;;;;;;;15.10;4.35;;;25.30;99.90;;;;;;4972999;28;20065;-65
2021/12/23 08:11:11;;;;;;;13.32;4.70;;;25.20;99.90;;;;;;4966244;28;20500;-67
2021/12/23 08:13:38;;;;;;;12.43;5.00;;;25.20;99.90;;;;;;4964642;28;20085;-66
2021/12/23 08:16:06;;;;;;;12.60;3.85;;;25.20;99.90;;;;;;4967703;28;20135;-66
2021/12/23 08:18:33;;;;;;;9.73;5.22;;;25.20;99.90;;;;;;4967880;28;20031;-67
2021/12/23 08:21:01;;;;;;;15.43;4.97;;;25.20;99.90;;;;;;4968013;28;20036;-66
2021/12/23 08:23:29;;;;;;;13.55;4.10;;;25.10;99.90;;;;;;4965033;28;20042;-66
2021/12/23 08:26:00;;;;;;;15.57;4.15;;;25.10;99.90;;;;;;4965778;28;20038;-67
2021/12/23 08:28:27;;;;;;;12.38;3.60;;;25.10;99.90;;;;;;4965768;28;20459;-66
2021/12/23 08:30:55;;;;;;;16.83;3.78;;;25.10;99.90;;;;;;4967957;28;20659;-66
2021/12/23 08:33:22;;;;;;;14.55;3.88;;;25.10;99.90;;;;;;4972298;28;20045;-66
2021/12/23 08:35:49;;;;;;;11.85;3.78;;;25.00;99.90;;;;;;4957100;28;20549;-66
2021/12/23 08:38:17;;;;;;;12.95;3.47;;;25.00;99.90;;;;;;4972598;28;20030;-66
2021/12/23 08:40:44;;;;;;;12.02;4.22;;;25.00;99.90;;;;;;4969278;28;20499;-67
2021/12/23 08:43:12;;;;;;;14.27;4.57;;;25.00;99.90;;;;;;4959002;28;20110;-66
2021/12/23 08:45:40;;;;;;;16.27;4.38;;;25.00;99.90;;;;;;4966097;28;20041;-66
2021/12/23 08:48:07;;;;;;;15.55;4.07;;;25.00;99.90;;;;;;4965626;28;20639;-67
2021/12/23 08:50:35;;;;;;;12.93;4.45;;;24.90;99.90;;;;;;4966030;28;20093;-67
2021/12/23 08:53:03;;;;;;;11.60;3.65;;;24.90;99.90;;;;;;4966014;28;20066;-66
2021/12/23 08:55:33;;;;;;;10.95;3.97;;;24.90;99.90;;;;;;4966255;28;20027;-67
2021/12/23 08:58:04;;;;;;;8.95;3.72;;;24.80;99.90;;;;;;4966358;28;20475;-67
2021/12/23 09:00:33;;;;;;;12.27;4.47;;;24.80;99.90;;;;;;4966173;28;20089;-67
2021/12/23 09:03:00;;;;;;;13.90;4.82;;;24.80;99.90;;;;;;4965827;28;20035;-65
2021/12/23 09:05:28;;;;;;;9.48;4.00;;;24.70;99.90;;;;;;4965862;28;20042;-68
2021/12/23 09:07:55;;;;;;;13.90;4.35;;;24.70;99.90;;;;;;4966186;28;20039;-66
2021/12/23 09:10:23;;;;;;;12.60;3.72;;;24.60;99.90;;;;;;4968429;28;20476;-66
2021/12/23 09:12:51;;;;;;;12.93;5.00;;;24.60;99.90;;;;;;4963283;28;20043;-66
2021/12/23 09:15:20;;;;;;;8.13;3.30;;;24.60;99.90;;;;;;4964837;28;20081;-66
2021/12/23 09:17:48;;;;;;;15.38;4.82;;;24.50;99.90;;;;;;4965205;28;20015;-66
2021/12/23 09:20:17;;;;;;;13.65;4.70;;;24.50;99.90;;;;;;4965775;28;20038;-67
2021/12/23 09:22:46;;;;;;;12.45;4.25;;;24.50;99.90;;;;;;4964985;28;20030;-67
2021/12/23 09:25:23;;;;;;;14.30;4.53;;;24.50;99.90;;;;;;4962662;28;20591;-68
2021/12/23 09:33:12;;;;;;;14.38;4.20;;;24.30;99.90;;;;;;4967527;28;20050;-67
2021/12/23 09:35:40;;;;;;;14.63;4.88;;;24.30;99.90;;;;;;4967216;28;20027;-67
2021/12/23 09:38:08;;;;;;;18.25;6.00;;;24.30;99.90;;;;;;4966805;28;20023;-65
2021/12/23 09:40:36;;;;;;;16.10;5.25;;;24.30;99.90;;;;;;4967210;28;20031;-67
2021/12/23 09:43:07;;;;;;;10.23;5.25;;;24.30;99.90;;;;;;4966401;28;20031;-66
2021/12/23 09:45:36;;;;;;;17.10;5.00;;;24.30;99.90;;;;;;4966386;28;20062;-65
2021/12/23 09:48:04;;;;;;;15.93;5.03;;;24.30;99.90;;;;;;4966485;28;20031;-67
2021/12/23 09:50:40;;;;;;;13.90;5.97;;;24.30;99.90;;;;;;4966830;28;20522;-64
2021/12/23 09:53:08;;;;;;;13.63;5.03;;;24.20;99.90;;;;;;4966286;28;20085;-67
2021/12/23 09:55:37;;;;;;;24.20;6.18;;;24.20;99.90;;;;;;4966438;28;20042;-64
2021/12/23 09:58:06;;;;;;;14.32;4.88;;;24.10;99.90;;;;;;4966444;28;20038;-66
2021/12/23 10:00:35;;;;;;;10.73;4.18;;;24.10;99.90;;;;;;4966424;28;20057;-66
2021/12/23 10:03:03;;;;;;;12.00;4.97;;;24.10;99.90;;;;;;4966795;28;20038;-67
2021/12/23 10:05:32;;;;;;;14.50;5.55;;;24.20;99.90;;;;;;4967079;28;20050;-66
2021/12/23 10:08:01;;;;;;;10.75;4.65;;;24.10;99.90;;;;;;4966664;28;20106;-67
2021/12/23 10:10:36;;;;;;;12.40;4.43;;;24.10;99.90;;;;;;4967337;28;20523;-66
2021/12/23 10:26:51;;;;;;;10.40;4.18;;;24.10;99.90;;;;;;4966255;28;20043;-68
2021/12/23 10:27:40;;;;;;;10.27;3.88;;;23.90;99.90;;;;;;4970073;28;20176;-67
2021/12/23 10:33:08;;;;;;;11.48;4.72;;;23.90;99.90;;;;;;4969967;28;20043;-66
2021/12/23 10:38:51;;;;;;;11.40;4.93;;;23.90;99.90;;;;;;4969477;28;20109;-65
2021/12/23 10:41:25;;;;;;;14.23;5.40;;;23.90;99.90;;;;;;4969549;28;20584;-64
2021/12/23 10:43:57;;;;;;;12.60;5.90;;;23.80;99.90;;;;;;4969153;28;20555;-65
2021/12/23 10:46:39;;;;;;;12.15;5.72;;;23.80;99.90;;;;;;4969415;28;20085;-65
2021/12/23 10:52:17;;;;;;;11.65;5.57;;;23.80;99.90;;;;;;4956786;28;20133;-65
2021/12/23 11:00:26;;;;;;;11.43;5.15;;;23.80;99.90;;;;;;4970305;28;20502;-66
2021/12/23 11:03:26;;;;;;;9.30;5.70;;;23.80;99.90;;;;;;4969487;28;20054;-66
2021/12/23 11:06:05;;;;;;;14.93;5.75;;;23.80;99.90;;;;;;4969241;28;20090;-66
2021/12/23 11:11:37;;;;;;;8.18;5.30;;;23.80;99.90;;;;;;4974794;28;20380;-66
2021/12/23 11:39:48;;;;;;;14.52;4.90;;;23.80;99.90;;;;;;4964338;28;19918;-67
2021/12/23 11:43:00;;;;;;;14.35;5.93;;;23.80;99.90;;;;;;4963102;28;20029;-67
2021/12/23 11:45:04;;;;;;;13.60;5.45;;;23.80;99.90;;;;;;4963282;28;20039;-67
2021/12/23 11:47:33;;;;;;;13.30;5.53;;;23.80;99.90;;;;;;4961835;28;20061;-69
2021/12/23 11:50:01;;;;;;;15.05;5.07;;;23.80;99.90;;;;;;4961698;28;20380;-66
2021/12/23 11:52:29;;;;;;;11.30;4.70;;;23.80;99.90;;;;;;4964234;28;20117;-65
2021/12/23 11:54:57;;;;;;;11.00;4.47;;;23.80;99.90;;;;;;4963483;28;20472;-65
2021/12/23 11:57:35;;;;;;;13.63;5.18;;;23.80;99.90;;;;;;4960063;28;20024;-66
2021/12/23 12:00:21;;;;;;;13.27;4.97;;;23.90;99.90;;;;;;4963116;28;20380;-68
2021/12/23 12:03:09;;;;;;;12.70;4.72;;;23.90;99.90;;;;;;4963467;28;20369;-67
2021/12/23 12:05:37;;;;;;;14.10;4.57;;;23.90;99.90;;;;;;4965547;28;20484;-67
2021/12/23 12:08:07;;;;;;;20.38;5.28;;;23.90;99.90;;;;;;4961995;28;20491;-66
2021/12/23 12:10:36;;;;;;;14.27;4.57;;;23.90;99.90;;;;;;4963694;28;20364;-67
2021/12/23 12:13:09;;;;;;;13.88;4.75;;;23.90;99.90;;;;;;4961598;28;20031;-65
2021/12/23 12:15:39;;;;;;;10.25;4.80;;;23.80;99.90;;;;;;4960842;28;20090;-67
2021/12/23 12:18:19;;;;;;;11.18;4.15;;;23.80;99.90;;;;;;4962399;28;20054;-66
2021/12/23 12:20:51;;;;;;;11.25;4.10;;;23.80;99.90;;;;;;4962470;28;20496;-66
2021/12/23 12:23:32;;;;;;;12.15;4.35;;;23.80;99.90;;;;;;4961179;28;20510;-67
2021/12/23 12:26:05;;;;;;;13.95;4.82;;;23.80;99.90;;;;;;4972765;28;20035;-66
2021/12/23 12:28:47;;;;;;;9.65;5.00;;;23.70;99.90;;;;;;4973181;28;20107;-66
2021/12/23 12:31:23;;;;;;;10.88;4.03;;;23.70;99.90;;;;;;4973382;28;20029;-66
2021/12/23 12:33:59;;;;;;;9.77;3.45;;;23.70;99.90;;;;;;4973475;28;20093;-66
2021/12/23 12:36:27;;;;;;;9.57;4.50;;;23.70;99.90;;;;;;4973295;28;20106;-67
2021/12/23 12:39:17;;;;;;;12.25;4.55;;;23.70;99.90;;;;;;4973919;28;20419;-67
2021/12/23 12:41:46;;;;;;;12.93;3.97;;;23.70;99.90;;;;;;4973178;28;20026;-67
2021/12/23 12:44:27;;;;;;;7.25;3.80;;;23.70;99.90;;;;;;4971510;28;20022;-67
2021/12/23 12:47:06;;;;;;;9.93;4.10;;;23.80;99.90;;;;;;4972783;28;20023;-67
2021/12/23 12:49:47;;;;;;;11.13;3.70;;;23.70;99.90;;;;;;4972167;28;20308;-68
2021/12/23 12:52:34;;;;;;;9.00;4.65;;;23.70;99.90;;;;;;4972608;28;20046;-67
2021/12/23 12:55:06;;;;;;;10.32;3.75;;;23.70;99.90;;;;;;4973157;28;20023;-67
2021/12/23 12:57:45;;;;;;;12.88;3.85;;;23.60;99.90;;;;;;4971845;28;20043;-67
2021/12/23 13:00:31;;;;;;;9.02;4.18;;;23.60;99.90;;;;;;4972797;28;20031;-67
2021/12/23 13:03:04;;;;;;;11.32;3.83;;;23.60;99.90;;;;;;4972236;28;20019;-66
2021/12/23 13:05:40;;;;;;;10.15;4.00;;;23.60;99.90;;;;;;4972474;28;20022;-66
2021/12/23 13:08:19;;;;;;;11.77;4.07;;;23.50;99.90;;;;;;4972506;28;20031;-66
2021/12/23 13:10:48;;;;;;;8.98;3.50;;;23.60;99.90;;;;;;4972537;28;20070;-66
2021/12/23 13:13:33;;;;;;;11.55;4.80;;;23.60;99.90;;;;;;4972873;28;20066;-67
2021/12/23 13:16:10;;;;;;;11.68;3.63;;;23.60;99.90;;;;;;4972923;28;20468;-67
2021/12/23 13:18:38;;;;;;;5.13;2.97;;;23.70;99.90;;;;;;4972313;28;20027;-68
2021/12/23 13:21:06;;;;;;;7.65;3.28;;;23.70;99.90;;;;;;4971786;28;20450;-68
2021/12/23 13:23:40;;;;;;;13.00;3.35;;;23.70;99.90;;;;;;4971093;28;20108;-68
2021/12/23 13:26:21;;;;;;;8.68;2.83;;;23.80;99.90;;;;;;4970919;28;20028;-69
2021/12/23 13:28:54;;;;;;;9.05;3.83;;;23.80;99.90;;;;;;4971785;28;20069;-67
2021/12/23 13:31:21;;;;;;;5.43;2.80;;;23.80;99.90;;;;;;4972017;28;20106;-68
2021/12/23 13:33:56;;;;;;;11.68;3.10;;;23.90;99.90;;;;;;4972095;28;20479;-69
2021/12/23 13:36:31;;;;;;;6.70;3.20;;;23.90;99.90;;;;;;4972616;28;20440;-66
2021/12/23 13:39:02;;;;;;;15.73;5.15;;;23.90;99.90;;;;;;4972448;28;20110;-67
2021/12/23 13:41:30;;;;;;;7.97;2.90;;;23.90;99.90;;;;;;4959294;28;20023;-68
2021/12/23 13:44:01;;;;;;;10.02;3.40;;;23.80;99.90;;;;;;4964840;28;20024;-67
2021/12/23 13:46:32;;;;;;;11.45;3.03;;;23.80;99.90;;;;;;4963097;28;20027;-68
2021/12/23 13:49:06;;;;;;;11.43;2.95;;;23.70;99.90;;;;;;4962042;28;20032;-67
2021/12/23 13:51:36;;;;;;;8.63;3.53;;;23.70;99.90;;;;;;4961260;28;20377;-67
2021/12/23 13:54:08;;;;;;;6.85;3.38;;;23.70;99.90;;;;;;4961793;28;20030;-67
2021/12/23 13:56:37;;;;;;;8.90;2.95;;;23.80;99.90;;;;;;4958328;28;20051;-67
2021/12/23 13:59:11;;;;;;;6.15;2.72;;;23.70;99.90;;;;;;4956747;28;20027;-66
2021/12/23 14:02:15;;;;;;;6.78;3.05;;;23.60;99.90;;;;;;4956575;28;20078;-67
2021/12/23 14:04:49;;;;;;;8.82;3.08;;;23.70;99.90;;;;;;4947130;28;20094;-66